createdAt,value
2019-01-11T00:01:34.846Z,6.73
2019-01-11T00:04:03.751Z,9.60
2019-01-11T00:06:32.365Z,5.90
2019-01-11T00:09:00.966Z,11.80
2019-01-11T00:11:29.681Z,6.03
2019-01-11T00:13:58.201Z,7.23
2019-01-11T00:16:26.849Z,4.80
2019-01-11T00:18:55.441Z,5.67
2019-01-11T00:21:24.065Z,15.63
2019-01-11T00:23:52.622Z,7.97
2019-01-11T00:26:21.255Z,8.33
2019-01-11T00:28:49.815Z,7.87
2019-01-11T00:31:18.434Z,8.10
2019-01-11T00:33:46.990Z,7.27
2019-01-11T00:36:15.573Z,11.23
2019-01-11T00:38:44.124Z,7.27
2019-01-11T00:41:12.755Z,8.70
2019-01-11T00:43:41.346Z,9.17
2019-01-11T00:46:10.279Z,5.33
2019-01-11T00:48:39.171Z,7.17
2019-01-11T00:51:07.714Z,7.83
2019-01-11T00:53:36.210Z,8.43
2019-01-11T00:56:05.279Z,11.43
2019-01-11T00:58:33.787Z,8.30
2019-01-11T01:01:02.395Z,11.17
2019-01-11T01:03:30.935Z,8.53
2019-01-11T01:05:59.977Z,7.60
2019-01-11T01:08:30.583Z,9.00
2019-01-11T01:10:59.786Z,9.63
2019-01-11T01:13:29.419Z,10.37
2019-01-11T01:15:57.971Z,7.23
2019-01-11T01:18:26.996Z,6.47
2019-01-11T01:20:55.877Z,10.87
2019-01-11T01:23:25.580Z,10.53
2019-01-11T01:25:54.123Z,8.73
2019-01-11T01:28:22.670Z,9.87
2019-01-11T01:30:51.185Z,7.20
2019-01-11T01:33:19.772Z,8.70
2019-01-11T01:35:48.293Z,8.70
2019-01-11T01:38:16.885Z,10.87
2019-01-11T01:40:45.410Z,9.30
2019-01-11T01:43:13.990Z,8.67
2019-01-11T01:45:42.590Z,11.50
2019-01-11T01:48:11.522Z,11.93
2019-01-11T01:50:40.043Z,11.80
2019-01-11T01:53:09.319Z,13.23
2019-01-11T01:55:37.939Z,19.43
2019-01-11T01:58:06.898Z,11.90
2019-01-11T02:00:35.510Z,14.70
2019-01-11T02:03:04.168Z,16.63
2019-01-11T02:05:32.723Z,14.63
2019-01-11T02:08:01.272Z,16.90
2019-01-11T02:10:29.903Z,23.20
2019-01-11T02:12:58.534Z,17.67
2019-01-11T02:15:27.083Z,17.83
2019-01-11T02:17:56.054Z,15.73
2019-01-11T02:20:24.677Z,16.10
2019-01-11T02:22:53.308Z,15.97
2019-01-11T02:25:21.845Z,15.53
2019-01-11T02:27:50.393Z,16.13
2019-01-11T02:30:20.971Z,16.80
2019-01-11T02:32:53.040Z,17.60
2019-01-11T02:35:19.860Z,21.90
2019-01-11T02:37:48.511Z,22.77
2019-01-11T02:40:17.123Z,19.50
2019-01-11T02:42:45.779Z,19.73
2019-01-11T02:45:17.366Z,16.30
2019-01-11T02:47:45.959Z,24.63
2019-01-11T02:50:15.364Z,22.30
2019-01-11T02:52:44.384Z,23.50
2019-01-11T02:55:12.925Z,20.50
2019-01-11T02:57:41.590Z,20.10
2019-01-11T03:00:16.268Z,26.00
2019-01-11T03:02:45.051Z,22.00
2019-01-11T03:05:14.520Z,25.17
2019-01-11T03:07:43.671Z,24.20
2019-01-11T03:10:15.228Z,24.10
2019-01-11T03:12:43.815Z,22.70
2019-01-11T03:15:13.295Z,25.33
2019-01-11T03:17:42.050Z,29.43
2019-01-11T03:20:13.385Z,23.07
2019-01-11T03:22:42.366Z,21.20
2019-01-11T03:25:13.333Z,18.87
2019-01-11T03:27:42.675Z,19.07
2019-01-11T03:30:14.134Z,21.20
2019-01-11T03:32:42.778Z,24.07
2019-01-11T03:35:18.924Z,21.90
2019-01-11T03:37:49.081Z,28.63
2019-01-11T03:40:19.941Z,24.33
2019-01-11T03:42:48.600Z,24.33
2019-01-11T03:45:19.775Z,23.33
2019-01-11T03:47:48.436Z,21.50
2019-01-11T03:50:18.780Z,19.30
2019-01-11T03:52:47.439Z,26.30
2019-01-11T03:55:17.016Z,19.50
2019-01-11T03:57:45.670Z,23.60
2019-01-11T04:00:22.344Z,26.50
2019-01-11T04:02:50.982Z,21.93
2019-01-11T04:05:20.234Z,25.93
2019-01-11T04:07:48.837Z,22.27
2019-01-11T04:10:19.502Z,24.43
2019-01-11T04:12:48.223Z,27.47
2019-01-11T04:15:18.576Z,22.57
2019-01-11T04:17:49.259Z,24.70
2019-01-11T04:20:19.404Z,22.00
2019-01-11T04:22:50.149Z,30.17
2019-01-11T04:25:20.320Z,21.90
2019-01-11T04:27:50.497Z,25.50
2019-01-11T04:30:19.743Z,25.60
2019-01-11T04:32:48.779Z,24.30
2019-01-11T04:35:17.843Z,27.13
2019-01-11T04:37:46.526Z,28.50
2019-01-11T04:40:15.964Z,30.40
2019-01-11T04:42:44.530Z,26.20
2019-01-11T04:45:13.113Z,26.70
2019-01-11T04:47:42.131Z,29.93
2019-01-11T04:50:14.078Z,30.47
2019-01-11T04:52:42.804Z,26.90
2019-01-11T04:55:11.515Z,30.87
2019-01-11T04:57:40.215Z,29.73
2019-01-11T05:00:18.144Z,33.93
2019-01-11T05:02:46.776Z,29.23
2019-01-11T05:05:15.691Z,30.87
2019-01-11T05:07:44.328Z,29.37
2019-01-11T05:10:15.681Z,25.97
2019-01-11T05:12:44.253Z,34.87
2019-01-11T05:15:12.879Z,29.47
2019-01-11T05:17:41.613Z,28.30
2019-01-11T05:20:16.560Z,35.60
2019-01-11T05:22:42.643Z,35.83
2019-01-11T05:25:11.190Z,35.17
2019-01-11T05:27:39.798Z,31.73
2019-01-11T05:30:11.547Z,34.53
2019-01-11T05:32:40.362Z,32.43
2019-01-11T05:35:09.075Z,30.60
2019-01-11T05:37:37.824Z,34.30
2019-01-11T05:40:09.543Z,29.83
2019-01-11T05:42:38.124Z,26.10
2019-01-11T05:45:07.462Z,29.97
2019-01-11T05:47:36.074Z,30.77
2019-01-11T05:50:11.254Z,33.10
2019-01-11T05:52:39.935Z,35.40
2019-01-11T05:55:10.872Z,34.87
2019-01-11T05:57:41.098Z,30.27
2019-01-11T06:00:11.098Z,30.50
2019-01-11T06:02:39.742Z,31.43
2019-01-11T06:05:09.812Z,25.50
2019-01-11T06:07:40.171Z,33.07
2019-01-11T06:10:11.829Z,27.20
2019-01-11T06:12:40.615Z,31.27
2019-01-11T06:15:09.288Z,26.80
2019-01-11T06:17:38.017Z,29.30
2019-01-11T06:20:09.740Z,26.47
2019-01-11T06:22:38.312Z,28.70
2019-01-11T06:25:06.999Z,26.30
2019-01-11T06:27:35.739Z,29.40
2019-01-11T06:30:07.719Z,28.50
2019-01-11T06:32:36.687Z,31.53
2019-01-11T06:35:06.700Z,27.30
2019-01-11T06:37:35.295Z,28.83
2019-01-11T06:40:06.321Z,27.53
2019-01-11T06:42:35.589Z,35.93
2019-01-11T06:45:06.917Z,28.37
2019-01-11T06:47:36.524Z,28.93
2019-01-11T06:50:14.121Z,25.00
2019-01-11T06:52:42.758Z,28.43
2019-01-11T06:55:12.057Z,25.77
2019-01-11T06:57:40.746Z,30.47
2019-01-11T07:00:12.522Z,27.97
2019-01-11T07:02:42.215Z,26.97
2019-01-11T07:05:11.910Z,25.50
2019-01-11T07:07:40.927Z,24.40
2019-01-11T07:10:21.150Z,24.60
2019-01-11T07:12:49.795Z,21.63
2019-01-11T07:15:18.497Z,21.80
2019-01-11T07:17:47.068Z,22.90
2019-01-11T07:20:15.989Z,20.27
2019-01-11T07:22:44.683Z,19.20
2019-01-11T07:25:15.149Z,17.70
2019-01-11T07:28:00.499Z,18.73
2019-01-11T07:30:30.834Z,16.03
2019-01-11T07:32:59.444Z,18.53
2019-01-11T07:35:29.707Z,17.93
2019-01-11T07:37:58.260Z,17.73
2019-01-11T07:40:26.828Z,15.43
2019-01-11T07:42:55.350Z,19.60
2019-01-11T07:45:24.538Z,16.63
2019-01-11T07:47:53.580Z,14.57
2019-01-11T07:50:22.254Z,14.87
2019-01-11T07:52:50.842Z,17.00
2019-01-11T07:55:19.512Z,14.43
2019-01-11T07:57:48.150Z,15.73
2019-01-11T08:00:16.903Z,14.83
2019-01-11T08:02:46.138Z,13.20
2019-01-11T08:05:14.781Z,15.80
2019-01-11T08:07:43.361Z,14.77
2019-01-11T08:10:13.142Z,14.03
2019-01-11T08:12:42.347Z,11.87
2019-01-11T08:15:18.494Z,11.83
2019-01-11T08:17:47.108Z,13.80
2019-01-11T08:20:16.157Z,13.13
2019-01-11T08:22:44.868Z,9.80
2019-01-11T08:25:15.259Z,12.13
2019-01-11T08:27:45.151Z,12.83
2019-01-11T08:30:17.165Z,16.13
2019-01-11T08:32:46.155Z,11.53
2019-01-11T08:35:15.673Z,10.27
2019-01-11T08:37:45.524Z,11.80
2019-01-11T08:40:14.627Z,8.77
2019-01-11T08:42:43.284Z,9.60
2019-01-11T08:45:15.030Z,10.53
2019-01-11T08:47:43.576Z,9.17
2019-01-11T08:50:18.519Z,12.90
2019-01-11T08:52:47.280Z,9.93
2019-01-11T08:55:16.387Z,9.13
2019-01-11T08:57:44.988Z,8.10
2019-01-11T09:00:15.673Z,9.83
2019-01-11T09:02:44.423Z,9.83
2019-01-11T09:05:13.148Z,11.17
2019-01-11T09:07:42.537Z,10.20
2019-01-11T09:10:22.669Z,26.07
2019-01-11T09:12:48.857Z,15.53
2019-01-11T09:15:17.609Z,14.70
2019-01-11T09:17:50.836Z,17.47
2019-01-11T09:20:19.650Z,14.73
2019-01-11T09:22:48.694Z,24.23
2019-01-11T09:25:17.326Z,9.73
2019-01-11T09:27:45.863Z,17.90
2019-01-11T09:30:14.446Z,19.33
2019-01-11T09:32:44.191Z,10.70
2019-01-11T09:35:12.855Z,9.83
2019-01-11T09:37:42.384Z,12.27
2019-01-11T09:40:12.839Z,13.17
2019-01-11T09:42:41.407Z,13.97
2019-01-11T09:45:10.071Z,10.03
2019-01-11T09:47:39.026Z,16.23
2019-01-11T09:50:09.720Z,11.47
2019-01-11T09:52:38.250Z,12.20
2019-01-11T09:55:08.118Z,11.57
2019-01-11T09:57:37.157Z,14.10
2019-01-11T10:00:21.525Z,16.63
2019-01-11T10:02:53.125Z,13.73
2019-01-11T10:05:21.698Z,31.33
2019-01-11T10:07:50.514Z,14.40
2019-01-11T10:10:19.540Z,15.90
2019-01-11T10:12:49.027Z,29.50
2019-01-11T10:15:17.754Z,22.33
2019-01-11T10:17:48.366Z,18.93
2019-01-11T10:20:18.322Z,22.00
2019-01-11T10:22:47.104Z,20.70
2019-01-11T10:25:15.806Z,21.03
2019-01-11T10:27:44.377Z,24.77
2019-01-11T10:30:15.896Z,21.83
2019-01-11T10:32:45.380Z,19.07
2019-01-11T10:35:14.360Z,19.80
2019-01-11T10:37:43.212Z,23.00
2019-01-11T10:40:16.837Z,21.43
2019-01-11T10:42:45.511Z,19.50
2019-01-11T10:45:19.305Z,23.23
2019-01-11T10:47:48.060Z,21.23
2019-01-11T10:50:17.730Z,18.73
2019-01-11T10:52:46.432Z,20.90
2019-01-11T10:55:16.702Z,21.33
2019-01-11T10:57:46.698Z,22.30
2019-01-11T11:00:23.872Z,20.90
2019-01-11T11:02:53.231Z,20.50
2019-01-11T11:05:23.040Z,18.87
2019-01-11T11:07:51.734Z,16.70
2019-01-11T11:10:20.373Z,20.87
2019-01-11T11:12:49.539Z,20.07
2019-01-11T11:15:18.862Z,16.57
2019-01-11T11:17:47.948Z,16.67
2019-01-11T11:20:18.220Z,16.00
2019-01-11T11:22:47.850Z,16.37
2019-01-11T11:25:19.578Z,14.90
2019-01-11T11:27:48.549Z,13.27
2019-01-11T11:30:19.035Z,14.57
2019-01-11T11:32:52.540Z,14.07
2019-01-11T11:35:21.612Z,12.77
2019-01-11T11:37:50.157Z,14.77
2019-01-11T11:40:19.280Z,14.73
2019-01-11T11:42:49.308Z,16.07
2019-01-11T11:45:19.037Z,14.33
2019-01-11T11:47:47.871Z,13.80
2019-01-11T11:50:16.752Z,15.30
2019-01-11T11:52:45.365Z,14.77
2019-01-11T11:55:13.988Z,11.03
2019-01-11T11:57:42.704Z,11.87
2019-01-11T12:00:20.584Z,15.73
2019-01-11T12:02:49.286Z,19.30
2019-01-11T12:05:17.913Z,10.57
2019-01-11T12:07:46.782Z,12.43
2019-01-11T12:10:16.270Z,12.90
2019-01-11T12:12:44.899Z,13.17
2019-01-11T12:15:14.989Z,12.43
2019-01-11T12:17:43.619Z,11.50
2019-01-11T12:20:24.561Z,14.03
2019-01-11T12:22:53.420Z,14.87
2019-01-11T12:25:22.413Z,13.60
2019-01-11T12:27:51.792Z,12.20
2019-01-11T12:30:20.422Z,10.17
2019-01-11T12:32:49.014Z,10.80
2019-01-11T12:35:18.155Z,11.23
2019-01-11T12:37:47.043Z,11.40
2019-01-11T12:40:16.100Z,22.80
2019-01-11T12:42:44.868Z,10.77
2019-01-11T12:45:15.414Z,13.27
2019-01-11T12:47:44.205Z,11.40
2019-01-11T12:50:21.203Z,11.03
2019-01-11T12:52:50.237Z,12.97
2019-01-11T12:55:19.559Z,11.03
2019-01-11T12:57:48.597Z,15.60
2019-01-11T13:00:18.749Z,11.70
2019-01-11T13:02:48.464Z,10.10
2019-01-11T13:05:19.562Z,16.87
2019-01-11T13:07:48.378Z,12.90
2019-01-11T13:10:19.103Z,12.40
2019-01-11T13:12:47.916Z,12.33
2019-01-11T13:15:18.263Z,11.50
2019-01-11T13:17:47.034Z,12.57
2019-01-11T13:20:18.870Z,11.03
2019-01-11T13:22:48.163Z,11.97
2019-01-11T13:25:16.976Z,13.43
2019-01-11T13:27:46.193Z,15.23
2019-01-11T13:30:16.963Z,11.50
2019-01-11T13:32:46.343Z,10.40
2019-01-11T13:35:15.831Z,9.60
2019-01-11T13:37:44.699Z,9.33
2019-01-11T13:40:19.987Z,9.70
2019-01-11T13:42:49.320Z,9.70
2019-01-11T13:45:18.140Z,9.60
2019-01-11T13:47:47.064Z,11.13
2019-01-11T13:50:35.936Z,9.60
2019-01-11T13:53:05.884Z,13.27
2019-01-11T13:55:35.700Z,16.23
2019-01-11T13:58:04.841Z,11.53
2019-01-11T14:00:34.216Z,11.40
2019-01-11T14:03:05.257Z,10.43
2019-01-11T14:05:33.892Z,10.10
2019-01-11T14:08:02.664Z,12.50
2019-01-11T14:10:31.705Z,10.03
2019-01-11T14:13:00.673Z,9.97
2019-01-11T14:15:29.399Z,9.50
2019-01-11T14:18:00.471Z,10.50
2019-01-11T14:20:32.696Z,9.33
2019-01-11T14:23:01.477Z,10.60
2019-01-11T14:25:30.414Z,7.73
2019-01-11T14:28:01.295Z,9.80
2019-01-11T14:30:31.234Z,9.33
2019-01-11T14:33:00.021Z,10.00
2019-01-11T14:35:28.643Z,10.97
2019-01-11T14:37:58.197Z,9.20
2019-01-11T14:40:27.401Z,10.10
2019-01-11T14:42:56.264Z,10.50
2019-01-11T14:45:25.192Z,11.93
2019-01-11T14:47:56.404Z,9.67
2019-01-11T14:50:25.592Z,11.90
2019-01-11T14:52:55.351Z,11.17
2019-01-11T14:55:24.395Z,10.87
2019-01-11T14:57:53.175Z,9.73
2019-01-11T15:00:24.652Z,10.27
2019-01-11T15:02:55.592Z,11.07
2019-01-11T15:05:29.597Z,11.83
2019-01-11T15:07:59.982Z,11.13
2019-01-11T15:10:29.222Z,11.23
2019-01-11T15:13:02.706Z,11.43
2019-01-11T15:15:34.503Z,10.20
2019-01-11T15:18:07.559Z,16.23
2019-01-11T15:20:39.016Z,12.17
2019-01-11T15:23:13.569Z,11.60
2019-01-11T15:25:42.139Z,10.20
2019-01-11T15:28:12.754Z,10.83
2019-01-11T15:30:42.535Z,14.93
2019-01-11T15:33:13.956Z,11.10
2019-01-11T15:35:44.786Z,10.57
2019-01-11T15:38:14.329Z,10.50
2019-01-11T15:40:43.372Z,11.03
2019-01-11T15:43:14.368Z,10.90
2019-01-11T15:45:45.370Z,9.07
2019-01-11T15:48:18.896Z,9.87
2019-01-11T15:50:53.981Z,10.93
2019-01-11T15:53:24.301Z,10.00
2019-01-11T15:55:54.145Z,9.23
2019-01-11T15:58:25.017Z,13.23
2019-01-11T16:00:56.327Z,9.30
2019-01-11T16:03:27.873Z,11.83
2019-01-11T16:06:22.138Z,11.70
2019-01-11T16:09:04.945Z,10.30
2019-01-11T16:11:51.649Z,11.80
2019-01-11T16:14:59.761Z,10.77
2019-01-11T16:17:33.135Z,11.10
2019-01-11T16:20:12.205Z,11.37
2019-01-11T16:22:47.254Z,12.13
2019-01-11T16:25:24.383Z,10.50
2019-01-11T16:27:56.143Z,11.13
2019-01-11T16:30:26.980Z,14.03
2019-01-11T16:32:58.037Z,21.13
2019-01-11T16:35:28.772Z,13.67
2019-01-11T16:38:04.211Z,15.00
2019-01-11T16:40:39.817Z,12.60
2019-01-11T16:43:14.115Z,12.10
2019-01-11T16:45:49.680Z,14.57
2019-01-11T16:48:23.085Z,15.60
2019-01-11T16:50:52.952Z,15.20
2019-01-11T16:53:23.035Z,10.47
2019-01-11T16:55:53.796Z,12.23
2019-01-11T16:58:25.958Z,14.43
2019-01-11T17:00:55.777Z,11.73
2019-01-11T17:03:30.187Z,12.10
2019-01-11T17:06:03.467Z,11.73
2019-01-11T17:08:33.423Z,12.80
2019-01-11T17:11:02.258Z,15.50
2019-01-11T17:13:32.435Z,14.67
2019-01-11T17:16:01.592Z,14.50
2019-01-11T17:18:30.824Z,14.60
2019-01-11T17:21:06.748Z,19.60
2019-01-11T17:23:37.659Z,14.50
2019-01-11T17:26:06.957Z,15.00
2019-01-11T17:28:36.623Z,14.83
2019-01-11T17:31:06.388Z,14.23
2019-01-11T17:33:35.815Z,13.50
2019-01-11T17:36:05.021Z,15.10
2019-01-11T17:38:34.431Z,15.00
2019-01-11T17:41:05.480Z,14.17
2019-01-11T17:43:35.121Z,13.17
2019-01-11T17:46:04.859Z,14.27
2019-01-11T17:48:33.934Z,15.00
2019-01-11T17:51:03.439Z,14.47
2019-01-11T17:53:33.102Z,13.13
2019-01-11T17:56:02.478Z,13.30
2019-01-11T17:58:34.559Z,15.40
2019-01-11T18:01:04.711Z,14.63
2019-01-11T18:03:33.464Z,11.20
2019-01-11T18:06:21.282Z,13.07
2019-01-11T18:08:50.862Z,22.57
2019-01-11T18:11:19.701Z,14.30
2019-01-11T18:13:48.672Z,16.93
2019-01-11T18:16:18.095Z,15.57
2019-01-11T18:18:48.042Z,13.13
2019-01-11T18:21:19.281Z,24.77
2019-01-11T18:23:48.523Z,13.90
2019-01-11T18:26:17.405Z,11.73
2019-01-11T18:28:46.684Z,13.00
2019-01-11T18:31:16.647Z,12.80
2019-01-11T18:33:46.512Z,14.63
2019-01-11T18:36:15.796Z,9.40
2019-01-11T18:38:45.672Z,9.43
2019-01-11T18:41:17.235Z,12.50
2019-01-11T18:43:49.759Z,19.93
2019-01-11T18:46:20.913Z,12.53
2019-01-11T18:48:50.253Z,15.23
2019-01-11T18:51:20.105Z,12.63
2019-01-11T18:53:49.440Z,12.17
2019-01-11T18:56:23.345Z,12.13
2019-01-11T18:58:53.636Z,10.73
2019-01-11T19:01:24.549Z,13.60
2019-01-11T19:03:53.916Z,15.37
2019-01-11T19:06:23.101Z,17.27
2019-01-11T19:08:52.923Z,10.90
2019-01-11T19:11:23.660Z,12.00
2019-01-11T19:13:55.938Z,14.50
2019-01-11T19:16:26.326Z,12.37
2019-01-11T19:18:57.676Z,12.23
2019-01-11T19:21:31.028Z,14.30
2019-01-11T19:24:00.141Z,18.20
2019-01-11T19:26:29.691Z,17.60
2019-01-11T19:29:00.184Z,21.23
2019-01-11T19:31:33.189Z,15.67
2019-01-11T19:34:03.134Z,16.70
2019-01-11T19:36:39.080Z,16.33
2019-01-11T19:39:08.894Z,16.90
2019-01-11T19:41:39.290Z,13.20
2019-01-11T19:44:08.211Z,10.60
2019-01-11T19:46:36.925Z,24.63
2019-01-11T19:49:05.638Z,17.73
2019-01-11T19:51:35.090Z,15.20
2019-01-11T19:54:04.239Z,17.07
2019-01-11T19:56:33.463Z,21.80
2019-01-11T19:59:03.245Z,22.63
2019-01-11T20:01:34.451Z,16.80
2019-01-11T20:04:04.192Z,13.03
2019-01-11T20:06:33.340Z,13.90
2019-01-11T20:09:02.144Z,25.13
2019-01-11T20:11:33.269Z,16.00
2019-01-11T20:14:03.257Z,21.43
2019-01-11T20:16:33.900Z,22.63
2019-01-11T20:19:05.545Z,20.10
2019-01-11T20:21:36.239Z,21.23
2019-01-11T20:24:08.240Z,19.23
2019-01-11T20:26:38.354Z,25.93
2019-01-11T20:29:08.630Z,37.87
2019-01-11T20:31:40.031Z,25.97
2019-01-11T20:34:09.969Z,30.40
2019-01-11T20:36:47.047Z,23.20
2019-01-11T20:39:16.142Z,26.73
2019-01-11T20:41:45.290Z,29.23
2019-01-11T20:44:15.888Z,26.60
2019-01-11T20:46:45.112Z,21.73
2019-01-11T20:49:14.560Z,35.07
2019-01-11T20:51:46.420Z,33.43
2019-01-11T20:54:15.965Z,32.37
2019-01-11T20:56:45.609Z,30.07
2019-01-11T20:59:15.656Z,30.67
2019-01-11T21:01:46.070Z,29.80
2019-01-11T21:04:15.990Z,31.50
2019-01-11T21:06:46.272Z,38.63
2019-01-11T21:09:14.918Z,28.97
2019-01-11T21:11:45.171Z,37.70
2019-01-11T21:14:13.955Z,28.13
2019-01-11T21:16:43.538Z,31.80
2019-01-11T21:19:13.687Z,27.27
2019-01-11T21:21:43.962Z,34.80
2019-01-11T21:24:12.988Z,50.70
2019-01-11T21:26:42.027Z,35.40
2019-01-11T21:29:11.863Z,33.07
2019-01-11T21:31:40.773Z,38.73
2019-01-11T21:34:10.659Z,39.33
2019-01-11T21:36:40.405Z,43.07
2019-01-11T21:39:09.528Z,29.60
2019-01-11T21:41:38.897Z,46.90
2019-01-11T21:44:08.198Z,44.73
2019-01-11T21:46:37.335Z,29.13
2019-01-11T21:49:06.817Z,49.10
2019-01-11T21:51:36.205Z,46.00
2019-01-11T21:54:07.063Z,33.90
2019-01-11T21:56:37.635Z,30.77
2019-01-11T21:59:08.627Z,39.30
2019-01-11T22:01:39.460Z,40.90
2019-01-11T22:04:08.506Z,58.40
2019-01-11T22:06:38.374Z,39.10
2019-01-11T22:09:09.430Z,34.23
2019-01-11T22:11:38.230Z,27.70
2019-01-11T22:14:09.772Z,40.43
2019-01-11T22:16:38.695Z,45.53
2019-01-11T22:19:07.509Z,38.43
2019-01-11T22:21:37.294Z,51.50
2019-01-11T22:24:06.492Z,60.30
2019-01-11T22:26:35.213Z,38.07
2019-01-11T22:29:08.694Z,49.23
2019-01-11T22:31:37.510Z,43.47
2019-01-11T22:34:06.294Z,55.53
2019-01-11T22:36:35.225Z,35.47
2019-01-11T22:39:05.615Z,47.13
2019-01-11T22:41:34.468Z,31.37
2019-01-11T22:44:03.288Z,47.10
2019-01-11T22:46:32.754Z,57.47
2019-01-11T22:49:01.494Z,59.13
2019-01-11T22:51:30.810Z,45.20
2019-01-11T22:53:59.821Z,55.97
2019-01-11T22:56:29.341Z,49.33
2019-01-11T22:58:58.554Z,35.33
2019-01-11T23:01:30.542Z,41.73
2019-01-11T23:04:00.313Z,37.50
2019-01-11T23:06:37.339Z,43.93
2019-01-11T23:09:09.826Z,35.90
2019-01-11T23:11:56.765Z,37.70
2019-01-11T23:14:25.372Z,45.77
2019-01-11T23:16:57.085Z,43.50
2019-01-11T23:19:25.837Z,53.33
2019-01-11T23:21:55.115Z,48.50
2019-01-11T23:24:23.685Z,46.33
2019-01-11T23:26:52.310Z,45.83
2019-01-11T23:29:21.353Z,62.43
2019-01-11T23:31:50.386Z,44.30
2019-01-11T23:34:19.129Z,48.73
2019-01-11T23:36:48.424Z,73.20
2019-01-11T23:39:17.110Z,55.13
2019-01-11T23:41:45.834Z,52.33
2019-01-11T23:44:14.486Z,44.93
2019-01-11T23:46:43.093Z,54.60
2019-01-11T23:49:11.671Z,50.87
2019-01-11T23:51:40.396Z,59.07
2019-01-11T23:54:09.090Z,46.13
2019-01-11T23:56:37.992Z,42.00
2019-01-11T23:59:06.780Z,49.03
